createdAt,value
2022-11-16T00:03:36.414Z,32.80
2022-11-16T00:08:45.341Z,24.70
2022-11-16T00:13:48.649Z,39.30
2022-11-16T00:18:58.352Z,46.50
2022-11-16T00:24:03.099Z,45.60
2022-11-16T00:29:06.771Z,36.90
2022-11-16T00:34:10.186Z,39.40
2022-11-16T00:39:15.981Z,25.90
2022-11-16T00:44:19.385Z,24.30
2022-11-16T00:49:22.671Z,46.40
2022-11-16T00:54:26.098Z,36.80
2022-11-16T00:59:29.396Z,35.20
2022-11-16T01:04:32.709Z,32.80
2022-11-16T01:09:36.051Z,33.00
2022-11-16T01:14:46.814Z,27.40
2022-11-16T01:19:50.323Z,24.20
2022-11-16T01:24:53.534Z,33.60
2022-11-16T01:29:57.043Z,34.40
2022-11-16T01:35:00.258Z,26.00
2022-11-16T01:40:04.698Z,19.20
2022-11-16T01:45:30.544Z,20.70
2022-11-16T01:50:35.082Z,25.10
2022-11-16T01:55:40.701Z,25.20
2022-11-16T02:00:44.143Z,22.60
2022-11-16T02:06:28.216Z,16.80
2022-11-16T02:11:50.989Z,16.80
2022-11-16T02:17:12.633Z,20.60
2022-11-16T02:22:38.766Z,23.10
2022-11-16T02:27:47.717Z,19.70
2022-11-16T02:32:59.878Z,14.20
2022-11-16T02:38:14.435Z,10.00
2022-11-16T02:43:26.624Z,11.40
2022-11-16T02:48:42.119Z,16.30
2022-11-16T02:54:23.795Z,9.80
2022-11-16T02:59:31.743Z,5.90
2022-11-16T03:05:05.160Z,3.70
2022-11-16T03:10:10.356Z,5.60
2022-11-16T03:15:14.042Z,3.80
2022-11-16T03:20:27.176Z,3.50
2022-11-16T03:25:38.474Z,3.20
2022-11-16T03:30:52.904Z,1.90
2022-11-16T03:36:10.407Z,2.80
2022-11-16T03:41:15.525Z,1.90
2022-11-16T03:46:21.621Z,1.70
2022-11-16T03:51:25.856Z,2.20
2022-11-16T03:56:29.061Z,1.40
2022-11-16T04:01:32.370Z,1.00
2022-11-16T04:06:54.283Z,1.90
2022-11-16T04:12:15.968Z,1.60
2022-11-16T04:17:39.245Z,0.70
2022-11-16T04:23:22.288Z,1.40
2022-11-16T04:28:32.252Z,1.00
2022-11-16T04:33:54.941Z,2.00
2022-11-16T04:38:58.225Z,1.60
2022-11-16T04:44:01.544Z,1.20
2022-11-16T04:49:04.856Z,2.00
2022-11-16T04:54:08.088Z,3.70
2022-11-16T04:59:11.571Z,1.30
2022-11-16T05:04:14.688Z,2.50
2022-11-16T05:09:17.992Z,0.60
2022-11-16T05:14:21.101Z,0.70
2022-11-16T05:19:42.946Z,0.70
2022-11-16T05:24:46.084Z,0.80
2022-11-16T05:29:49.990Z,4.60
2022-11-16T05:34:53.384Z,2.50
2022-11-16T05:39:57.224Z,4.70
2022-11-16T05:45:00.552Z,1.80
2022-11-16T05:50:04.297Z,3.50
2022-11-16T05:55:08.601Z,3.00
2022-11-16T06:00:13.135Z,4.30
2022-11-16T06:05:16.336Z,2.50
2022-11-16T06:10:19.638Z,3.00
2022-11-16T06:15:23.049Z,0.80
2022-11-16T06:20:27.590Z,1.20
2022-11-16T06:25:33.566Z,0.80
2022-11-16T06:30:40.346Z,1.30
2022-11-16T06:35:44.178Z,0.60
2022-11-16T06:40:56.125Z,0.70
2022-11-16T06:45:59.311Z,0.70
2022-11-16T06:51:02.561Z,0.90
2022-11-16T06:56:06.843Z,1.00
2022-11-16T07:01:12.673Z,1.60
2022-11-16T07:06:16.226Z,1.20
2022-11-16T07:11:20.496Z,1.10
2022-11-16T07:16:23.874Z,0.70
2022-11-16T07:21:26.985Z,1.60
2022-11-16T07:26:33.209Z,3.40
2022-11-16T07:31:36.368Z,2.50
2022-11-16T07:36:39.794Z,2.90
2022-11-16T07:41:44.530Z,1.80
2022-11-16T07:46:48.601Z,4.10
2022-11-16T07:51:52.071Z,3.60
2022-11-16T07:56:55.182Z,2.60
2022-11-16T08:01:59.466Z,5.20
2022-11-16T08:07:02.891Z,3.00
2022-11-16T08:12:06.478Z,4.30
2022-11-16T08:17:09.853Z,3.10
2022-11-16T08:22:13.284Z,1.20
2022-11-16T08:27:17.817Z,5.90
2022-11-16T08:32:21.015Z,1.20
2022-11-16T08:37:26.382Z,1.00
2022-11-16T08:42:29.485Z,2.10
2022-11-16T08:47:33.229Z,2.40
2022-11-16T08:52:36.422Z,5.10
2022-11-16T08:57:41.132Z,3.40
2022-11-16T09:02:44.162Z,3.10
2022-11-16T09:07:47.466Z,4.70
2022-11-16T09:12:50.578Z,2.90
2022-11-16T09:17:55.143Z,1.70
2022-11-16T09:22:58.226Z,1.10
2022-11-16T09:28:01.551Z,1.60
2022-11-16T09:33:04.634Z,4.40
2022-11-16T09:38:10.068Z,2.30
2022-11-16T09:43:45.623Z,0.70
2022-11-16T09:48:51.348Z,1.80
2022-11-16T09:54:08.876Z,2.90
2022-11-16T09:59:25.821Z,2.20
2022-11-16T10:04:58.272Z,1.30
2022-11-16T10:10:02.331Z,2.10
2022-11-16T10:15:33.902Z,1.60
2022-11-16T10:21:03.749Z,1.50
2022-11-16T10:26:37.674Z,5.70
2022-11-16T10:32:28.320Z,2.90
2022-11-16T10:37:36.792Z,4.00
2022-11-16T10:42:39.927Z,1.30
2022-11-16T10:48:02.179Z,1.80
2022-11-16T10:53:05.809Z,1.00
2022-11-16T10:58:09.046Z,1.20
2022-11-16T11:03:13.175Z,1.90
2022-11-16T11:08:31.909Z,2.60
2022-11-16T11:18:38.945Z,3.40
2022-11-16T11:23:52.151Z,1.10
2022-11-16T11:28:56.414Z,1.50
2022-11-16T11:34:18.260Z,2.40
2022-11-16T11:39:21.361Z,4.00
2022-11-16T11:44:38.130Z,7.10
2022-11-16T11:49:52.432Z,5.00
2022-11-16T11:54:56.814Z,16.90
2022-11-16T12:00:02.869Z,6.80
2022-11-16T12:05:50.834Z,6.30
2022-11-16T12:11:13.191Z,19.30
2022-11-16T12:16:53.062Z,15.80
2022-11-16T12:22:26.271Z,11.90
2022-11-16T12:28:10.262Z,12.20
2022-11-16T12:33:37.343Z,32.50
2022-11-16T12:38:49.747Z,5.30
2022-11-16T12:44:14.544Z,5.60
2022-11-16T12:49:28.815Z,4.70
2022-11-16T12:55:29.827Z,4.00
2022-11-16T13:00:56.058Z,4.30
2022-11-16T13:06:25.633Z,6.50
2022-11-16T13:11:47.799Z,8.50
2022-11-16T13:16:53.161Z,8.70
2022-11-16T13:22:07.535Z,6.60
2022-11-16T13:27:53.119Z,11.70
2022-11-16T13:33:05.385Z,8.20
2022-11-16T13:38:15.553Z,7.40
2022-11-16T13:43:20.059Z,7.90
2022-11-16T13:48:36.476Z,7.80
2022-11-16T13:59:23.041Z,16.80
2022-11-16T14:04:41.935Z,19.70
2022-11-16T14:09:49.631Z,9.40
2022-11-16T14:15:33.185Z,50.60
2022-11-16T14:21:33.225Z,26.50
2022-11-16T14:27:17.099Z,12.20
2022-11-16T14:32:36.999Z,7.60
2022-11-16T14:37:44.698Z,15.90
2022-11-16T14:43:15.367Z,9.40
2022-11-16T14:48:22.628Z,10.00
2022-11-16T14:53:28.381Z,6.80
2022-11-16T14:58:32.244Z,12.70
2022-11-16T15:03:45.974Z,9.40
2022-11-16T15:08:59.763Z,10.20
2022-11-16T15:14:03.100Z,13.90
2022-11-16T15:19:12.754Z,6.00
2022-11-16T15:24:31.851Z,44.80
2022-11-16T15:29:36.455Z,32.40
2022-11-16T15:34:40.177Z,38.50
2022-11-16T15:39:43.999Z,11.60
2022-11-16T15:44:47.348Z,27.90
2022-11-16T15:49:53.227Z,20.80
2022-11-16T15:55:04.996Z,7.10
2022-11-16T16:00:23.513Z,8.10
2022-11-16T16:05:35.061Z,10.00
2022-11-16T16:10:38.207Z,10.20
2022-11-16T16:15:41.786Z,29.80
2022-11-16T16:20:49.092Z,5.90
2022-11-16T16:25:52.198Z,10.90
2022-11-16T16:30:55.323Z,23.80
2022-11-16T16:35:59.327Z,28.50
2022-11-16T16:41:05.148Z,12.90
2022-11-16T16:46:13.294Z,9.30
2022-11-16T16:51:16.430Z,5.40
2022-11-16T16:56:20.359Z,6.50
2022-11-16T17:01:23.515Z,9.50
2022-11-16T17:06:26.876Z,5.20
2022-11-16T17:11:30.085Z,7.80
2022-11-16T17:16:33.291Z,5.00
2022-11-16T17:21:36.510Z,8.00
2022-11-16T17:26:41.361Z,7.10
2022-11-16T17:31:48.060Z,5.80
2022-11-16T17:36:51.358Z,5.80
2022-11-16T17:41:54.983Z,4.10
2022-11-16T17:46:58.180Z,35.10
2022-11-16T17:52:02.035Z,27.20
2022-11-16T17:57:05.459Z,12.60
2022-11-16T18:02:11.922Z,25.30
2022-11-16T18:07:15.293Z,18.00
2022-11-16T18:12:18.930Z,7.00
2022-11-16T18:17:22.139Z,5.70
2022-11-16T18:22:25.458Z,5.50
2022-11-16T18:27:28.987Z,6.90
2022-11-16T18:32:33.827Z,4.90
2022-11-16T18:37:37.225Z,24.70
2022-11-16T18:42:41.816Z,10.30
2022-11-16T18:47:46.309Z,20.60
2022-11-16T18:52:49.633Z,13.30
2022-11-16T18:57:52.721Z,9.00
2022-11-16T19:02:55.851Z,9.30
2022-11-16T19:07:59.046Z,6.30
2022-11-16T19:13:02.362Z,4.40
2022-11-16T19:18:20.999Z,7.40
2022-11-16T19:23:25.230Z,5.50
2022-11-16T19:28:28.367Z,9.30
2022-11-16T19:33:31.767Z,12.90
2022-11-16T19:38:35.596Z,5.40
2022-11-16T19:43:39.528Z,4.80
2022-11-16T19:48:45.856Z,7.10
2022-11-16T19:53:49.223Z,6.90
2022-11-16T19:58:53.033Z,3.70
2022-11-16T20:04:02.521Z,6.20
2022-11-16T20:09:09.984Z,12.60
2022-11-16T20:14:14.216Z,3.40
2022-11-16T20:19:19.137Z,7.20
2022-11-16T20:24:22.497Z,8.60
2022-11-16T20:29:25.705Z,6.60
2022-11-16T20:34:29.021Z,4.80
2022-11-16T20:39:32.222Z,5.80
2022-11-16T20:44:35.427Z,8.40
2022-11-16T20:49:38.742Z,7.50
2022-11-16T20:54:41.966Z,11.60
2022-11-16T20:59:45.164Z,9.00
2022-11-16T21:04:48.464Z,5.70
2022-11-16T21:10:10.224Z,6.80
2022-11-16T21:15:13.527Z,4.50
2022-11-16T21:20:32.781Z,4.30
2022-11-16T21:25:36.434Z,8.40
2022-11-16T21:30:39.840Z,7.70
2022-11-16T21:35:42.945Z,4.90
2022-11-16T21:40:46.872Z,8.50
2022-11-16T21:45:51.269Z,4.60
2022-11-16T21:51:04.123Z,10.30
2022-11-16T21:56:12.860Z,8.10
2022-11-16T22:06:38.375Z,4.70
2022-11-16T22:22:28.022Z,7.20
2022-11-16T22:27:31.529Z,9.90
2022-11-16T22:32:34.837Z,9.00
2022-11-16T22:37:38.156Z,7.00
2022-11-16T22:42:41.490Z,3.00
2022-11-16T22:47:44.792Z,10.10
2022-11-16T22:52:48.292Z,7.90
2022-11-16T22:57:52.330Z,7.00
2022-11-16T23:02:55.684Z,5.30
2022-11-16T23:07:59.249Z,3.50
2022-11-16T23:13:21.410Z,5.30
2022-11-16T23:18:24.672Z,7.80
2022-11-16T23:23:46.456Z,3.70
2022-11-16T23:28:49.968Z,5.80
2022-11-16T23:33:53.182Z,4.80
2022-11-16T23:38:56.486Z,9.00
2022-11-16T23:43:59.806Z,7.80
2022-11-16T23:49:03.221Z,5.60
2022-11-16T23:54:07.761Z,10.70
2022-11-16T23:59:11.064Z,6.60
